Route Details

Aircraft Information
Group: North America Fleet
Types: B738, B752, B762, B763
Route Data
Distance: 622nm
Duration: 2h 20m
Origin METAR: KABE 010551Z 07006KT 10SM OVC040 M02/M11 A3018 RMK AO2 SLP223 T10171106 10000 21017 58010
Dest. METAR: KRFD 010554Z 18003KT 10SM CLR M19/M22 A3036 RMK AO2 SLP298 4/007 T11891222 11150 21189 411281239 58004
Freight Data
(for Feb 1, 2023)
Load Factor:
76%
Manifested Cargo: 50,436lbs
Financial History
Total Freight: 364,849lbs
Average Load: 0lbs/flt
Fuel Used: 142,019lbs
Avg. Fuel Used: 0lbs/flt
Fuel Expense: $78,199
Avg. Fuel Expense: $0
Avg. Fuel Cost: $0/lbs
Total Gross Income: $612,800
Pilot Pay: $1,582
Total Expenses: $92,043
Total Revenue: $438,597
Average Revenue: $0

Capitol Logistics 312




KABE
Lehigh Valley International Airport
Allentown, Pennsylvania
KRFD
Chicago/Rockford International Airport
Rockford, Illinois

Activity Log

Date Flight Route Aircraft Duration
08/21/2022 CPX312 DCT ETX V30 PSB J60 JOT DCT QUOTE DCT PLL DCT B763 1h 53m
08/02/2022 CPX312 DCT ETX V30 PSB J60 JOT DCT RFD DCT B762 2h 04m
07/19/2022 CPX312 DCT ETX V30 PSB J60 JOT DCT QUOTE DCT RFD DCT B763 2h 02m
08/29/2021 CPX7315 BEERS MIP J146 GIJ B763 2h 20m
04/18/2021 CPX9916 PSB J60 JOT V171 RFD B738 2h 02m
04/03/2020 CPX322 PSB J60 JOT V171 RFD B763 1h 55m
02/25/2020 CPX322 PSB J60 JOT V171 RFD B763 2h 00m
01/16/2019 CPX410 ETX V30 PSB J60 JOT QUOTE RFD B752 2h 00m